sensor_id;sensor_type;location;lat;lon;timestamp;temperature;humidity
41220;DHT22;26951;47.338;9.196;2023-09-30T00:00:45;17.10;53.90
41220;DHT22;26951;47.338;9.196;2023-09-30T00:03:29;17.10;54.00
41220;DHT22;26951;47.338;9.196;2023-09-30T00:06:14;17.10;54.20
41220;DHT22;26951;47.338;9.196;2023-09-30T00:08:58;17.00;54.20
41220;DHT22;26951;47.338;9.196;2023-09-30T00:11:42;17.00;54.60
41220;DHT22;26951;47.338;9.196;2023-09-30T00:14:26;17.00;54.40
41220;DHT22;26951;47.338;9.196;2023-09-30T00:17:10;17.00;53.50
41220;DHT22;26951;47.338;9.196;2023-09-30T00:19:55;17.00;54.40
41220;DHT22;26951;47.338;9.196;2023-09-30T00:22:39;16.90;54.40
41220;DHT22;26951;47.338;9.196;2023-09-30T00:25:23;16.90;54.00
41220;DHT22;26951;47.338;9.196;2023-09-30T00:28:07;16.90;53.70
41220;DHT22;26951;47.338;9.196;2023-09-30T00:30:52;16.90;54.50
41220;DHT22;26951;47.338;9.196;2023-09-30T00:33:36;16.90;55.30
41220;DHT22;26951;47.338;9.196;2023-09-30T00:36:21;16.90;55.20
41220;DHT22;26951;47.338;9.196;2023-09-30T00:39:07;16.90;55.00
41220;DHT22;26951;47.338;9.196;2023-09-30T00:41:52;16.90;55.20
41220;DHT22;26951;47.338;9.196;2023-09-30T00:44:38;16.90;55.20
41220;DHT22;26951;47.338;9.196;2023-09-30T00:47:23;16.90;54.80
41220;DHT22;26951;47.338;9.196;2023-09-30T00:50:08;16.90;55.40
41220;DHT22;26951;47.338;9.196;2023-09-30T00:52:54;16.80;55.60
41220;DHT22;26951;47.338;9.196;2023-09-30T00:55:40;16.80;55.20
41220;DHT22;26951;47.338;9.196;2023-09-30T00:58:25;16.70;54.40
41220;DHT22;26951;47.338;9.196;2023-09-30T01:04:47;16.70;54.90
41220;DHT22;26951;47.338;9.196;2023-09-30T01:07:31;16.70;55.60
41220;DHT22;26951;47.338;9.196;2023-09-30T01:10:15;16.70;55.40
41220;DHT22;26951;47.338;9.196;2023-09-30T01:12:59;16.60;56.00
41220;DHT22;26951;47.338;9.196;2023-09-30T01:15:44;16.60;56.00
41220;DHT22;26951;47.338;9.196;2023-09-30T01:18:28;16.60;56.20
41220;DHT22;26951;47.338;9.196;2023-09-30T01:21:13;16.60;55.70
41220;DHT22;26951;47.338;9.196;2023-09-30T01:23:57;16.60;56.00
41220;DHT22;26951;47.338;9.196;2023-09-30T01:26:41;16.60;56.10
41220;DHT22;26951;47.338;9.196;2023-09-30T01:29:28;16.60;55.90
41220;DHT22;26951;47.338;9.196;2023-09-30T01:32:12;16.50;55.80
41220;DHT22;26951;47.338;9.196;2023-09-30T01:34:57;16.50;55.40
41220;DHT22;26951;47.338;9.196;2023-09-30T01:37:42;16.50;55.40
41220;DHT22;26951;47.338;9.196;2023-09-30T01:40:26;16.50;55.80
41220;DHT22;26951;47.338;9.196;2023-09-30T01:43:10;16.50;56.30
41220;DHT22;26951;47.338;9.196;2023-09-30T01:45:57;16.50;56.40
41220;DHT22;26951;47.338;9.196;2023-09-30T01:48:41;16.50;55.90
41220;DHT22;26951;47.338;9.196;2023-09-30T01:51:26;16.50;56.10
41220;DHT22;26951;47.338;9.196;2023-09-30T01:54:11;16.50;56.40
41220;DHT22;26951;47.338;9.196;2023-09-30T01:56:55;16.50;55.70
41220;DHT22;26951;47.338;9.196;2023-09-30T01:59:40;16.50;55.80
41220;DHT22;26951;47.338;9.196;2023-09-30T02:02:24;16.50;56.20
41220;DHT22;26951;47.338;9.196;2023-09-30T02:05:10;16.50;56.10
41220;DHT22;26951;47.338;9.196;2023-09-30T02:07:54;16.40;56.30
41220;DHT22;26951;47.338;9.196;2023-09-30T02:10:39;16.40;55.60
41220;DHT22;26951;47.338;9.196;2023-09-30T02:13:23;16.40;55.60
41220;DHT22;26951;47.338;9.196;2023-09-30T02:16:14;16.40;56.00
41220;DHT22;26951;47.338;9.196;2023-09-30T02:18:58;16.40;56.50
41220;DHT22;26951;47.338;9.196;2023-09-30T02:21:42;16.40;57.00
41220;DHT22;26951;47.338;9.196;2023-09-30T02:24:28;16.40;57.30
41220;DHT22;26951;47.338;9.196;2023-09-30T02:27:12;16.40;57.10
41220;DHT22;26951;47.338;9.196;2023-09-30T02:29:56;16.40;57.10
41220;DHT22;26951;47.338;9.196;2023-09-30T02:32:40;16.30;57.30
41220;DHT22;26951;47.338;9.196;2023-09-30T02:35:25;16.30;56.80
41220;DHT22;26951;47.338;9.196;2023-09-30T02:38:10;16.30;56.20
41220;DHT22;26951;47.338;9.196;2023-09-30T02:40:55;16.30;55.90
41220;DHT22;26951;47.338;9.196;2023-09-30T02:43:39;16.30;56.20
41220;DHT22;26951;47.338;9.196;2023-09-30T02:46:23;16.30;56.70
41220;DHT22;26951;47.338;9.196;2023-09-30T02:49:07;16.30;56.70
41220;DHT22;26951;47.338;9.196;2023-09-30T02:51:51;16.30;57.10
41220;DHT22;26951;47.338;9.196;2023-09-30T02:54:36;16.30;56.70
41220;DHT22;26951;47.338;9.196;2023-09-30T02:57:20;16.20;56.00
41220;DHT22;26951;47.338;9.196;2023-09-30T03:00:05;16.20;55.20
41220;DHT22;26951;47.338;9.196;2023-09-30T03:03:00;16.20;54.40
41220;DHT22;26951;47.338;9.196;2023-09-30T03:05:45;16.20;54.40
41220;DHT22;26951;47.338;9.196;2023-09-30T03:08:30;16.20;54.50
41220;DHT22;26951;47.338;9.196;2023-09-30T03:11:15;16.20;54.30
41220;DHT22;26951;47.338;9.196;2023-09-30T03:13:59;16.20;53.50
41220;DHT22;26951;47.338;9.196;2023-09-30T03:16:44;16.20;53.80
41220;DHT22;26951;47.338;9.196;2023-09-30T03:19:28;16.20;54.00
41220;DHT22;26951;47.338;9.196;2023-09-30T03:22:13;16.20;54.00
41220;DHT22;26951;47.338;9.196;2023-09-30T03:24:57;16.20;54.70
41220;DHT22;26951;47.338;9.196;2023-09-30T03:27:41;16.20;55.20
41220;DHT22;26951;47.338;9.196;2023-09-30T03:30:25;16.20;54.60
41220;DHT22;26951;47.338;9.196;2023-09-30T03:33:09;16.20;53.90
41220;DHT22;26951;47.338;9.196;2023-09-30T03:35:53;16.20;53.70
41220;DHT22;26951;47.338;9.196;2023-09-30T03:38:38;16.10;53.40
41220;DHT22;26951;47.338;9.196;2023-09-30T03:41:22;16.20;54.00
41220;DHT22;26951;47.338;9.196;2023-09-30T03:44:07;16.20;55.20
41220;DHT22;26951;47.338;9.196;2023-09-30T03:46:52;16.20;54.90
41220;DHT22;26951;47.338;9.196;2023-09-30T03:49:36;16.20;55.40
41220;DHT22;26951;47.338;9.196;2023-09-30T03:52:22;16.20;55.40
41220;DHT22;26951;47.338;9.196;2023-09-30T03:55:10;16.10;55.20
41220;DHT22;26951;47.338;9.196;2023-09-30T03:57:55;16.10;54.30
41220;DHT22;26951;47.338;9.196;2023-09-30T04:00:39;16.10;54.20
41220;DHT22;26951;47.338;9.196;2023-09-30T04:03:23;16.10;54.10
41220;DHT22;26951;47.338;9.196;2023-09-30T04:06:08;16.10;54.00
41220;DHT22;26951;47.338;9.196;2023-09-30T04:08:52;16.10;53.70
41220;DHT22;26951;47.338;9.196;2023-09-30T04:11:36;16.00;54.10
41220;DHT22;26951;47.338;9.196;2023-09-30T04:14:21;16.00;54.60
41220;DHT22;26951;47.338;9.196;2023-09-30T04:17:05;16.00;54.50
41220;DHT22;26951;47.338;9.196;2023-09-30T04:19:49;16.00;54.70
41220;DHT22;26951;47.338;9.196;2023-09-30T04:22:36;16.00;55.20
41220;DHT22;26951;47.338;9.196;2023-09-30T04:25:20;15.90;55.30
41220;DHT22;26951;47.338;9.196;2023-09-30T04:28:04;15.90;55.60
41220;DHT22;26951;47.338;9.196;2023-09-30T04:30:49;15.90;55.40
41220;DHT22;26951;47.338;9.196;2023-09-30T04:33:34;15.90;55.20
41220;DHT22;26951;47.338;9.196;2023-09-30T04:36:20;15.90;55.00
41220;DHT22;26951;47.338;9.196;2023-09-30T04:39:06;15.90;55.70
41220;DHT22;26951;47.338;9.196;2023-09-30T04:41:50;15.90;55.50
41220;DHT22;26951;47.338;9.196;2023-09-30T04:44:34;15.90;55.50
41220;DHT22;26951;47.338;9.196;2023-09-30T04:47:18;15.80;55.30
41220;DHT22;26951;47.338;9.196;2023-09-30T04:50:08;15.80;56.00
41220;DHT22;26951;47.338;9.196;2023-09-30T04:52:53;15.70;56.30
41220;DHT22;26951;47.338;9.196;2023-09-30T04:55:37;15.70;56.30
41220;DHT22;26951;47.338;9.196;2023-09-30T04:58:21;15.70;56.30
41220;DHT22;26951;47.338;9.196;2023-09-30T05:01:07;15.80;56.90
41220;DHT22;26951;47.338;9.196;2023-09-30T05:03:52;15.70;56.10
41220;DHT22;26951;47.338;9.196;2023-09-30T05:06:37;15.80;56.60
41220;DHT22;26951;47.338;9.196;2023-09-30T05:09:21;15.70;56.70
41220;DHT22;26951;47.338;9.196;2023-09-30T05:12:05;15.70;57.00
41220;DHT22;26951;47.338;9.196;2023-09-30T05:14:49;15.70;56.80
41220;DHT22;26951;47.338;9.196;2023-09-30T05:17:34;15.70;56.90
41220;DHT22;26951;47.338;9.196;2023-09-30T05:20:18;15.70;56.70
41220;DHT22;26951;47.338;9.196;2023-09-30T05:23:02;15.70;56.80
41220;DHT22;26951;47.338;9.196;2023-09-30T05:25:47;15.70;57.00
41220;DHT22;26951;47.338;9.196;2023-09-30T05:28:32;15.70;56.60
41220;DHT22;26951;47.338;9.196;2023-09-30T05:31:16;15.70;56.00
41220;DHT22;26951;47.338;9.196;2023-09-30T05:34:00;15.60;56.20
41220;DHT22;26951;47.338;9.196;2023-09-30T05:36:46;15.70;56.40
41220;DHT22;26951;47.338;9.196;2023-09-30T05:39:30;15.60;56.30
41220;DHT22;26951;47.338;9.196;2023-09-30T05:42:16;15.60;56.40
41220;DHT22;26951;47.338;9.196;2023-09-30T05:45:00;15.60;56.80
41220;DHT22;26951;47.338;9.196;2023-09-30T05:47:44;15.60;56.80
41220;DHT22;26951;47.338;9.196;2023-09-30T05:50:29;15.60;56.80
41220;DHT22;26951;47.338;9.196;2023-09-30T05:53:13;15.60;56.60
41220;DHT22;26951;47.338;9.196;2023-09-30T05:55:59;15.60;56.60
41220;DHT22;26951;47.338;9.196;2023-09-30T05:58:43;15.60;56.90
41220;DHT22;26951;47.338;9.196;2023-09-30T06:01:27;15.60;57.00
41220;DHT22;26951;47.338;9.196;2023-09-30T06:04:12;15.70;57.70
41220;DHT22;26951;47.338;9.196;2023-09-30T06:06:56;15.70;57.20
41220;DHT22;26951;47.338;9.196;2023-09-30T06:09:40;15.70;57.00
41220;DHT22;26951;47.338;9.196;2023-09-30T06:12:24;15.70;56.80
41220;DHT22;26951;47.338;9.196;2023-09-30T06:15:09;15.70;57.10
41220;DHT22;26951;47.338;9.196;2023-09-30T06:17:55;15.70;57.40
41220;DHT22;26951;47.338;9.196;2023-09-30T06:20:39;15.70;57.20
41220;DHT22;26951;47.338;9.196;2023-09-30T06:23:23;15.70;57.40
41220;DHT22;26951;47.338;9.196;2023-09-30T06:26:07;15.70;57.60
41220;DHT22;26951;47.338;9.196;2023-09-30T06:28:51;15.70;57.00
41220;DHT22;26951;47.338;9.196;2023-09-30T06:31:38;15.70;57.10
41220;DHT22;26951;47.338;9.196;2023-09-30T06:34:22;15.70;56.80
41220;DHT22;26951;47.338;9.196;2023-09-30T06:37:07;15.70;56.70
41220;DHT22;26951;47.338;9.196;2023-09-30T06:39:52;15.80;57.10
41220;DHT22;26951;47.338;9.196;2023-09-30T06:42:37;15.80;57.00
41220;DHT22;26951;47.338;9.196;2023-09-30T06:45:23;15.80;56.90
41220;DHT22;26951;47.338;9.196;2023-09-30T06:48:08;15.90;56.50
41220;DHT22;26951;47.338;9.196;2023-09-30T06:50:56;15.90;56.60
41220;DHT22;26951;47.338;9.196;2023-09-30T06:53:40;15.90;56.20
41220;DHT22;26951;47.338;9.196;2023-09-30T06:56:24;15.90;56.60
41220;DHT22;26951;47.338;9.196;2023-09-30T06:59:08;15.90;56.90
41220;DHT22;26951;47.338;9.196;2023-09-30T07:01:52;16.00;56.90
41220;DHT22;26951;47.338;9.196;2023-09-30T07:04:36;16.00;57.00
41220;DHT22;26951;47.338;9.196;2023-09-30T07:07:20;16.10;57.00
41220;DHT22;26951;47.338;9.196;2023-09-30T07:10:06;16.10;56.70
41220;DHT22;26951;47.338;9.196;2023-09-30T07:12:50;16.10;56.40
41220;DHT22;26951;47.338;9.196;2023-09-30T07:15:34;16.10;56.30
41220;DHT22;26951;47.338;9.196;2023-09-30T07:18:18;16.10;56.40
41220;DHT22;26951;47.338;9.196;2023-09-30T07:21:02;16.20;56.10
41220;DHT22;26951;47.338;9.196;2023-09-30T07:23:46;16.20;55.90
41220;DHT22;26951;47.338;9.196;2023-09-30T07:26:32;16.30;55.20
41220;DHT22;26951;47.338;9.196;2023-09-30T07:29:16;16.30;55.10
41220;DHT22;26951;47.338;9.196;2023-09-30T07:32:00;16.40;56.00
41220;DHT22;26951;47.338;9.196;2023-09-30T07:34:44;16.50;54.00
41220;DHT22;26951;47.338;9.196;2023-09-30T07:37:28;16.60;55.60
41220;DHT22;26951;47.338;9.196;2023-09-30T07:40:13;16.80;56.30
41220;DHT22;26951;47.338;9.196;2023-09-30T07:42:57;16.90;54.80
41220;DHT22;26951;47.338;9.196;2023-09-30T07:45:41;16.90;54.10
41220;DHT22;26951;47.338;9.196;2023-09-30T07:48:27;17.00;54.40
41220;DHT22;26951;47.338;9.196;2023-09-30T07:51:11;17.00;53.70
41220;DHT22;26951;47.338;9.196;2023-09-30T07:53:57;17.00;53.00
41220;DHT22;26951;47.338;9.196;2023-09-30T07:56:41;17.00;53.10
41220;DHT22;26951;47.338;9.196;2023-09-30T07:59:28;17.10;53.00
41220;DHT22;26951;47.338;9.196;2023-09-30T08:02:13;17.10;53.40
41220;DHT22;26951;47.338;9.196;2023-09-30T08:04:57;17.20;53.10
41220;DHT22;26951;47.338;9.196;2023-09-30T08:07:41;17.20;53.80
41220;DHT22;26951;47.338;9.196;2023-09-30T08:10:25;17.30;53.20
41220;DHT22;26951;47.338;9.196;2023-09-30T08:13:09;17.30;53.80
41220;DHT22;26951;47.338;9.196;2023-09-30T08:15:54;17.40;53.60
41220;DHT22;26951;47.338;9.196;2023-09-30T08:18:38;17.40;54.00
41220;DHT22;26951;47.338;9.196;2023-09-30T08:21:22;17.60;55.50
41220;DHT22;26951;47.338;9.196;2023-09-30T08:24:07;17.70;55.20
41220;DHT22;26951;47.338;9.196;2023-09-30T08:26:52;17.80;56.30
41220;DHT22;26951;47.338;9.196;2023-09-30T08:29:36;18.00;56.70
41220;DHT22;26951;47.338;9.196;2023-09-30T08:32:20;18.20;56.00
41220;DHT22;26951;47.338;9.196;2023-09-30T08:35:05;18.30;55.30
41220;DHT22;26951;47.338;9.196;2023-09-30T08:37:49;18.40;55.40
41220;DHT22;26951;47.338;9.196;2023-09-30T08:40:33;18.60;55.30
41220;DHT22;26951;47.338;9.196;2023-09-30T08:43:20;18.80;56.60
41220;DHT22;26951;47.338;9.196;2023-09-30T08:46:09;19.00;54.50
41220;DHT22;26951;47.338;9.196;2023-09-30T08:48:53;19.10;51.60
41220;DHT22;26951;47.338;9.196;2023-09-30T08:51:39;19.20;52.90
41220;DHT22;26951;47.338;9.196;2023-09-30T08:54:23;19.30;52.00
41220;DHT22;26951;47.338;9.196;2023-09-30T08:57:09;19.40;50.70
41220;DHT22;26951;47.338;9.196;2023-09-30T08:59:54;19.50;51.20
41220;DHT22;26951;47.338;9.196;2023-09-30T09:02:39;19.50;50.70
41220;DHT22;26951;47.338;9.196;2023-09-30T09:05:23;19.60;50.80
41220;DHT22;26951;47.338;9.196;2023-09-30T09:08:07;19.60;50.50
41220;DHT22;26951;47.338;9.196;2023-09-30T09:10:58;19.70;49.50
41220;DHT22;26951;47.338;9.196;2023-09-30T09:13:50;19.70;49.20
41220;DHT22;26951;47.338;9.196;2023-09-30T09:16:35;19.80;50.10
41220;DHT22;26951;47.338;9.196;2023-09-30T09:19:19;19.90;51.60
41220;DHT22;26951;47.338;9.196;2023-09-30T09:22:05;20.10;50.90
41220;DHT22;26951;47.338;9.196;2023-09-30T09:24:51;20.10;50.20
41220;DHT22;26951;47.338;9.196;2023-09-30T09:27:35;20.30;50.00
41220;DHT22;26951;47.338;9.196;2023-09-30T09:30:24;20.30;49.70
41220;DHT22;26951;47.338;9.196;2023-09-30T09:33:08;20.40;47.60
41220;DHT22;26951;47.338;9.196;2023-09-30T09:35:52;20.40;48.40
41220;DHT22;26951;47.338;9.196;2023-09-30T09:38:50;20.50;48.40
41220;DHT22;26951;47.338;9.196;2023-09-30T09:41:54;20.50;48.10
41220;DHT22;26951;47.338;9.196;2023-09-30T09:44:40;20.60;47.80
41220;DHT22;26951;47.338;9.196;2023-09-30T09:47:25;20.50;47.40
41220;DHT22;26951;47.338;9.196;2023-09-30T09:50:10;20.50;47.60
41220;DHT22;26951;47.338;9.196;2023-09-30T09:52:54;20.60;47.90
41220;DHT22;26951;47.338;9.196;2023-09-30T09:55:43;20.70;48.60
41220;DHT22;26951;47.338;9.196;2023-09-30T09:58:32;20.80;48.50
41220;DHT22;26951;47.338;9.196;2023-09-30T10:01:17;20.90;47.10
41220;DHT22;26951;47.338;9.196;2023-09-30T10:04:02;20.90;46.00
41220;DHT22;26951;47.338;9.196;2023-09-30T10:06:52;20.80;45.60
41220;DHT22;26951;47.338;9.196;2023-09-30T10:09:37;20.70;45.50
41220;DHT22;26951;47.338;9.196;2023-09-30T10:12:22;20.80;45.40
41220;DHT22;26951;47.338;9.196;2023-09-30T10:18:11;20.90;47.00
41220;DHT22;26951;47.338;9.196;2023-09-30T10:21:07;20.90;46.00
41220;DHT22;26951;47.338;9.196;2023-09-30T10:30:07;21.10;45.90
41220;DHT22;26951;47.338;9.196;2023-09-30T10:35:45;21.30;45.80
41220;DHT22;26951;47.338;9.196;2023-09-30T10:53:28;22.10;45.10
41220;DHT22;26951;47.338;9.196;2023-09-30T10:56:13;22.30;43.60
41220;DHT22;26951;47.338;9.196;2023-09-30T10:58:57;22.40;44.80
41220;DHT22;26951;47.338;9.196;2023-09-30T11:01:42;22.60;42.60
41220;DHT22;26951;47.338;9.196;2023-09-30T11:04:26;22.70;43.00
41220;DHT22;26951;47.338;9.196;2023-09-30T11:07:19;22.70;43.90
41220;DHT22;26951;47.338;9.196;2023-09-30T11:10:06;22.70;45.50
41220;DHT22;26951;47.338;9.196;2023-09-30T11:12:58;22.80;42.90
41220;DHT22;26951;47.338;9.196;2023-09-30T11:15:43;23.10;38.40
41220;DHT22;26951;47.338;9.196;2023-09-30T11:18:27;23.20;41.00
41220;DHT22;26951;47.338;9.196;2023-09-30T11:21:11;23.20;39.80
41220;DHT22;26951;47.338;9.196;2023-09-30T11:23:57;23.20;39.50
41220;DHT22;26951;47.338;9.196;2023-09-30T11:26:43;23.10;39.30
41220;DHT22;26951;47.338;9.196;2023-09-30T11:29:28;22.90;38.00
41220;DHT22;26951;47.338;9.196;2023-09-30T11:32:26;22.70;39.00
41220;DHT22;26951;47.338;9.196;2023-09-30T11:35:24;22.60;40.40
41220;DHT22;26951;47.338;9.196;2023-09-30T11:38:08;22.50;39.70
41220;DHT22;26951;47.338;9.196;2023-09-30T11:41:03;22.40;40.40
41220;DHT22;26951;47.338;9.196;2023-09-30T11:44:06;22.40;40.40
41220;DHT22;26951;47.338;9.196;2023-09-30T11:46:55;22.40;41.00
41220;DHT22;26951;47.338;9.196;2023-09-30T11:49:42;22.40;41.10
41220;DHT22;26951;47.338;9.196;2023-09-30T11:52:28;22.40;40.40
41220;DHT22;26951;47.338;9.196;2023-09-30T11:55:13;22.30;40.50
41220;DHT22;26951;47.338;9.196;2023-09-30T11:57:57;22.20;41.20
41220;DHT22;26951;47.338;9.196;2023-09-30T12:00:41;22.10;42.40
41220;DHT22;26951;47.338;9.196;2023-09-30T12:03:26;22.00;44.10
41220;DHT22;26951;47.338;9.196;2023-09-30T12:06:13;22.00;44.20
41220;DHT22;26951;47.338;9.196;2023-09-30T12:09:00;22.20;43.90
41220;DHT22;26951;47.338;9.196;2023-09-30T12:11:44;22.30;43.10
41220;DHT22;26951;47.338;9.196;2023-09-30T12:14:28;22.50;42.60
41220;DHT22;26951;47.338;9.196;2023-09-30T12:17:14;22.70;43.90
41220;DHT22;26951;47.338;9.196;2023-09-30T12:19:58;23.00;45.40
41220;DHT22;26951;47.338;9.196;2023-09-30T12:22:43;23.20;43.10
41220;DHT22;26951;47.338;9.196;2023-09-30T12:25:27;23.40;42.30
41220;DHT22;26951;47.338;9.196;2023-09-30T12:28:14;23.40;39.70
41220;DHT22;26951;47.338;9.196;2023-09-30T12:31:02;23.20;38.80
41220;DHT22;26951;47.338;9.196;2023-09-30T12:33:47;23.00;39.30
41220;DHT22;26951;47.338;9.196;2023-09-30T12:36:34;22.90;39.20
41220;DHT22;26951;47.338;9.196;2023-09-30T12:39:18;22.80;38.90
41220;DHT22;26951;47.338;9.196;2023-09-30T12:42:07;22.60;39.40
41220;DHT22;26951;47.338;9.196;2023-09-30T12:44:53;22.50;39.80
41220;DHT22;26951;47.338;9.196;2023-09-30T12:47:37;22.50;39.50
41220;DHT22;26951;47.338;9.196;2023-09-30T12:50:22;22.30;39.70
41220;DHT22;26951;47.338;9.196;2023-09-30T12:53:06;22.20;40.00
41220;DHT22;26951;47.338;9.196;2023-09-30T12:55:51;22.20;41.30
41220;DHT22;26951;47.338;9.196;2023-09-30T12:58:35;22.20;41.30
41220;DHT22;26951;47.338;9.196;2023-09-30T13:01:19;22.20;41.40
41220;DHT22;26951;47.338;9.196;2023-09-30T13:04:03;22.20;41.20
41220;DHT22;26951;47.338;9.196;2023-09-30T13:06:52;22.10;41.70
41220;DHT22;26951;47.338;9.196;2023-09-30T13:09:38;22.10;41.40
41220;DHT22;26951;47.338;9.196;2023-09-30T13:12:22;22.10;42.40
41220;DHT22;26951;47.338;9.196;2023-09-30T13:15:06;22.10;41.80
41220;DHT22;26951;47.338;9.196;2023-09-30T13:17:52;22.00;41.40
41220;DHT22;26951;47.338;9.196;2023-09-30T13:20:36;22.00;40.70
41220;DHT22;26951;47.338;9.196;2023-09-30T13:23:20;21.90;41.80
41220;DHT22;26951;47.338;9.196;2023-09-30T13:26:04;21.90;41.90
41220;DHT22;26951;47.338;9.196;2023-09-30T13:28:50;21.90;41.90
41220;DHT22;26951;47.338;9.196;2023-09-30T13:31:34;21.80;41.00
41220;DHT22;26951;47.338;9.196;2023-09-30T13:34:20;21.70;40.60
41220;DHT22;26951;47.338;9.196;2023-09-30T13:37:04;21.60;40.40
41220;DHT22;26951;47.338;9.196;2023-09-30T13:39:49;21.60;40.10
41220;DHT22;26951;47.338;9.196;2023-09-30T13:42:34;21.50;40.70
41220;DHT22;26951;47.338;9.196;2023-09-30T13:45:18;21.40;40.50
41220;DHT22;26951;47.338;9.196;2023-09-30T13:48:03;21.30;40.70
41220;DHT22;26951;47.338;9.196;2023-09-30T13:50:48;21.20;41.50
41220;DHT22;26951;47.338;9.196;2023-09-30T13:53:32;21.10;41.10
41220;DHT22;26951;47.338;9.196;2023-09-30T13:56:17;21.00;41.80
41220;DHT22;26951;47.338;9.196;2023-09-30T13:59:01;21.00;41.50
41220;DHT22;26951;47.338;9.196;2023-09-30T14:01:45;21.00;42.30
41220;DHT22;26951;47.338;9.196;2023-09-30T14:04:32;20.90;41.80
41220;DHT22;26951;47.338;9.196;2023-09-30T14:07:16;20.80;41.20
41220;DHT22;26951;47.338;9.196;2023-09-30T14:10:03;20.80;41.90
41220;DHT22;26951;47.338;9.196;2023-09-30T14:12:47;20.70;41.60
41220;DHT22;26951;47.338;9.196;2023-09-30T14:15:32;20.70;41.50
41220;DHT22;26951;47.338;9.196;2023-09-30T14:18:16;20.60;41.70
41220;DHT22;26951;47.338;9.196;2023-09-30T14:21:00;20.70;42.10
41220;DHT22;26951;47.338;9.196;2023-09-30T14:23:44;20.60;41.50
41220;DHT22;26951;47.338;9.196;2023-09-30T14:26:29;20.60;41.80
41220;DHT22;26951;47.338;9.196;2023-09-30T14:29:13;20.50;42.10
41220;DHT22;26951;47.338;9.196;2023-09-30T14:31:57;20.50;41.80
41220;DHT22;26951;47.338;9.196;2023-09-30T14:34:41;20.50;42.70
41220;DHT22;26951;47.338;9.196;2023-09-30T14:37:25;20.40;42.10
41220;DHT22;26951;47.338;9.196;2023-09-30T14:40:10;20.30;41.60
41220;DHT22;26951;47.338;9.196;2023-09-30T14:42:54;20.30;41.30
41220;DHT22;26951;47.338;9.196;2023-09-30T14:45:39;20.30;42.00
41220;DHT22;26951;47.338;9.196;2023-09-30T14:48:23;20.20;42.20
41220;DHT22;26951;47.338;9.196;2023-09-30T14:51:07;20.20;42.00
41220;DHT22;26951;47.338;9.196;2023-09-30T14:53:51;20.20;42.20
41220;DHT22;26951;47.338;9.196;2023-09-30T14:56:36;20.10;42.00
41220;DHT22;26951;47.338;9.196;2023-09-30T14:59:20;20.00;42.20
41220;DHT22;26951;47.338;9.196;2023-09-30T15:02:06;19.90;42.10
41220;DHT22;26951;47.338;9.196;2023-09-30T15:04:52;19.80;41.50
41220;DHT22;26951;47.338;9.196;2023-09-30T15:07:37;19.70;42.40
41220;DHT22;26951;47.338;9.196;2023-09-30T15:10:24;19.70;42.30
41220;DHT22;26951;47.338;9.196;2023-09-30T15:13:09;19.60;42.60
41220;DHT22;26951;47.338;9.196;2023-09-30T15:15:53;19.60;43.00
41220;DHT22;26951;47.338;9.196;2023-09-30T15:18:38;19.50;42.60
41220;DHT22;26951;47.338;9.196;2023-09-30T15:21:22;19.30;42.30
41220;DHT22;26951;47.338;9.196;2023-09-30T15:24:07;19.20;42.70
41220;DHT22;26951;47.338;9.196;2023-09-30T15:26:52;19.30;44.80
41220;DHT22;26951;47.338;9.196;2023-09-30T15:29:36;19.30;44.10
41220;DHT22;26951;47.338;9.196;2023-09-30T15:32:20;19.30;44.20
41220;DHT22;26951;47.338;9.196;2023-09-30T15:35:06;19.30;44.50
41220;DHT22;26951;47.338;9.196;2023-09-30T15:37:50;19.30;44.40
41220;DHT22;26951;47.338;9.196;2023-09-30T15:40:55;19.40;44.80
41220;DHT22;26951;47.338;9.196;2023-09-30T15:43:44;19.40;45.00
41220;DHT22;26951;47.338;9.196;2023-09-30T15:46:28;19.40;44.70
41220;DHT22;26951;47.338;9.196;2023-09-30T15:49:12;19.40;44.50
41220;DHT22;26951;47.338;9.196;2023-09-30T15:51:56;19.30;44.80
41220;DHT22;26951;47.338;9.196;2023-09-30T15:54:41;19.30;44.80
41220;DHT22;26951;47.338;9.196;2023-09-30T15:57:25;19.30;44.70
41220;DHT22;26951;47.338;9.196;2023-09-30T16:00:10;19.30;45.60
41220;DHT22;26951;47.338;9.196;2023-09-30T16:02:54;19.30;45.40
41220;DHT22;26951;47.338;9.196;2023-09-30T16:05:39;19.30;45.70
41220;DHT22;26951;47.338;9.196;2023-09-30T16:08:23;19.30;44.90
41220;DHT22;26951;47.338;9.196;2023-09-30T16:11:08;19.30;45.50
41220;DHT22;26951;47.338;9.196;2023-09-30T16:13:52;19.20;45.60
41220;DHT22;26951;47.338;9.196;2023-09-30T16:16:37;19.20;45.80
41220;DHT22;26951;47.338;9.196;2023-09-30T16:19:21;19.20;46.60
41220;DHT22;26951;47.338;9.196;2023-09-30T16:22:06;19.20;47.00
41220;DHT22;26951;47.338;9.196;2023-09-30T16:24:50;19.10;47.10
41220;DHT22;26951;47.338;9.196;2023-09-30T16:27:34;19.10;46.30
41220;DHT22;26951;47.338;9.196;2023-09-30T16:30:19;19.00;46.10
41220;DHT22;26951;47.338;9.196;2023-09-30T16:33:03;19.00;47.20
41220;DHT22;26951;47.338;9.196;2023-09-30T16:35:48;18.90;47.50
41220;DHT22;26951;47.338;9.196;2023-09-30T16:38:34;18.90;47.70
41220;DHT22;26951;47.338;9.196;2023-09-30T16:41:18;18.90;48.10
41220;DHT22;26951;47.338;9.196;2023-09-30T16:44:04;18.80;48.00
41220;DHT22;26951;47.338;9.196;2023-09-30T16:46:49;18.70;48.30
41220;DHT22;26951;47.338;9.196;2023-09-30T16:49:33;18.70;47.90
41220;DHT22;26951;47.338;9.196;2023-09-30T16:52:18;18.60;48.10
41220;DHT22;26951;47.338;9.196;2023-09-30T16:55:03;18.60;48.50
41220;DHT22;26951;47.338;9.196;2023-09-30T16:57:48;18.50;49.30
41220;DHT22;26951;47.338;9.196;2023-09-30T17:00:32;18.50;49.20
41220;DHT22;26951;47.338;9.196;2023-09-30T17:03:16;18.40;49.00
41220;DHT22;26951;47.338;9.196;2023-09-30T17:06:00;18.30;48.90
41220;DHT22;26951;47.338;9.196;2023-09-30T17:08:44;18.30;48.90
41220;DHT22;26951;47.338;9.196;2023-09-30T17:11:28;18.20;48.60
41220;DHT22;26951;47.338;9.196;2023-09-30T17:14:13;18.20;48.50
41220;DHT22;26951;47.338;9.196;2023-09-30T17:16:58;18.10;49.40
41220;DHT22;26951;47.338;9.196;2023-09-30T17:19:42;18.10;49.80
41220;DHT22;26951;47.338;9.196;2023-09-30T17:22:26;18.00;49.70
41220;DHT22;26951;47.338;9.196;2023-09-30T17:25:11;17.90;49.50
41220;DHT22;26951;47.338;9.196;2023-09-30T17:27:54;17.90;49.20
41220;DHT22;26951;47.338;9.196;2023-09-30T17:30:38;17.80;49.50
41220;DHT22;26951;47.338;9.196;2023-09-30T17:33:22;17.70;49.50
41220;DHT22;26951;47.338;9.196;2023-09-30T17:36:08;17.60;49.30
41220;DHT22;26951;47.338;9.196;2023-09-30T17:38:52;17.60;49.30
41220;DHT22;26951;47.338;9.196;2023-09-30T17:41:37;17.40;49.20
41220;DHT22;26951;47.338;9.196;2023-09-30T17:44:21;17.30;48.70
41220;DHT22;26951;47.338;9.196;2023-09-30T17:47:06;17.20;48.80
41220;DHT22;26951;47.338;9.196;2023-09-30T17:49:50;17.10;48.90
41220;DHT22;26951;47.338;9.196;2023-09-30T17:52:35;17.10;50.40